Time;durP1;ratioP1;P1;durP2;ratioP2;P2;SDS_P1;SDS_P2;PMS_P1;PMS_P2;Temp;Humidity;BMP_temperature;BMP_pressure;BME280_temperature;BME280_humidity;BME280_pressure;Samples;Min_cycle;Max_cycle;Signal;HPM_P1;HPM_P2
2021/07/29 00:00:26;;;;;;;16.85;6.28;;;;;;;16.09;100.00;96681.91;5008855;28;20132;-64
2021/07/29 00:02:51;;;;;;;7.50;3.25;;;;;;;16.16;100.00;96670.81;5027650;28;20037;-63
2021/07/29 00:05:17;;;;;;;13.50;3.50;;;;;;;16.21;100.00;96678.69;5020987;28;20448;-64
2021/07/29 00:07:42;;;;;;;13.23;2.58;;;;;;;16.30;100.00;96683.00;5014384;28;20060;-65
2021/07/29 00:10:08;;;;;;;5.35;2.88;;;;;;;16.37;100.00;96680.97;5017393;28;20033;-65
2021/07/29 00:12:34;;;;;;;13.07;4.10;;;;;;;16.36;100.00;96670.31;5009355;28;20037;-64
2021/07/29 00:14:59;;;;;;;6.03;2.97;;;;;;;16.38;100.00;96674.22;5022690;28;20145;-63
2021/07/29 00:20:09;;;;;;;4.95;2.70;;;;;;;16.61;100.00;96676.44;5004027;28;20048;-64
2021/07/29 00:22:34;;;;;;;6.68;2.72;;;;;;;16.63;100.00;96673.25;5003887;28;20046;-63
2021/07/29 00:25:00;;;;;;;12.45;3.03;;;;;;;16.65;100.00;96673.63;5002513;28;20133;-64
2021/07/29 00:27:26;;;;;;;8.27;2.42;;;;;;;16.68;100.00;96670.06;4996148;28;20734;-64
2021/07/29 00:29:57;;;;;;;11.85;4.10;;;;;;;16.70;100.00;96675.97;5007273;28;20049;-63
2021/07/29 00:32:22;;;;;;;41.35;20.75;;;;;;;16.78;100.00;96685.78;5010580;28;20448;-63
2021/07/29 00:34:48;;;;;;;14.40;6.80;;;;;;;16.79;100.00;96683.78;5020958;28;20128;-62
2021/07/29 00:37:13;;;;;;;14.65;8.38;;;;;;;16.82;100.00;96680.22;5000858;28;20054;-63
2021/07/29 00:39:38;;;;;;;9.95;3.17;;;;;;;16.85;100.00;96681.41;5012865;28;20049;-63
2021/07/29 00:42:04;;;;;;;5.93;3.10;;;;;;;16.96;100.00;96673.78;5015438;28;20053;-62
2021/07/29 00:44:30;;;;;;;9.23;3.08;;;;;;;16.47;100.00;96671.00;5001959;28;20049;-63
2021/07/29 00:46:56;;;;;;;13.18;2.80;;;;;;;16.28;100.00;96666.81;5000355;28;20042;-64
2021/07/29 00:49:22;;;;;;;18.27;8.98;;;;;;;16.26;100.00;96674.72;5005332;28;20517;-62
2021/07/29 00:51:48;;;;;;;18.30;5.82;;;;;;;16.34;100.00;96676.22;5018935;28;20426;-63
2021/07/29 00:54:13;;;;;;;12.20;4.60;;;;;;;16.41;100.00;96670.66;5011758;28;20041;-64
2021/07/29 00:56:44;;;;;;;4.40;2.97;;;;;;;16.34;100.00;96673.47;5020233;28;20438;-64
2021/07/29 00:59:09;;;;;;;6.40;2.58;;;;;;;16.44;100.00;96669.84;4996582;28;20044;-64
2021/07/29 01:01:35;;;;;;;11.20;3.67;;;;;;;16.51;100.00;96674.53;5009332;28;20045;-64
2021/07/29 01:04:00;;;;;;;7.43;3.42;;;;;;;16.53;100.00;96674.13;5002473;28;20388;-67
2021/07/29 01:06:25;;;;;;;6.70;3.25;;;;;;;16.63;100.00;96673.25;4999512;28;20189;-65
2021/07/29 01:09:10;;;;;;;4.47;2.60;;;;;;;16.64;100.00;96663.78;5021014;28;20135;-65
2021/07/29 01:11:38;;;;;;;7.05;2.80;;;;;;;16.66;100.00;96668.91;5019620;28;20041;-64
2021/07/29 01:14:04;;;;;;;9.30;3.00;;;;;;;16.64;100.00;96663.78;5018310;28;20044;-62
2021/07/29 01:16:29;;;;;;;6.30;2.78;;;;;;;16.48;100.00;96656.00;5020315;28;20559;-64
2021/07/29 01:18:56;;;;;;;7.20;2.65;;;;;;;16.41;100.00;96659.59;5013591;28;20053;-66
2021/07/29 01:21:22;;;;;;;6.32;3.17;;;;;;;16.29;100.00;96660.06;4977689;28;20138;-62
2021/07/29 01:23:47;;;;;;;7.68;3.30;;;;;;;16.17;100.00;96653.06;5000991;28;20121;-65
2021/07/29 01:26:13;;;;;;;11.43;3.05;;;;;;;16.12;100.00;96655.47;4995631;28;20490;-67
2021/07/29 01:28:38;;;;;;;23.63;3.50;;;;;;;16.09;100.00;96659.81;4996924;28;20053;-65
2021/07/29 01:31:03;;;;;;;12.23;3.88;;;;;;;16.02;100.00;96649.56;4997423;28;20099;-63
2021/07/29 01:33:30;;;;;;;16.42;3.40;;;;;;;16.04;100.00;96663.00;4998903;28;20144;-65
2021/07/29 01:35:55;;;;;;;17.70;3.53;;;;;;;16.08;100.00;96658.25;5021011;28;20053;-65
2021/07/29 01:38:21;;;;;;;15.60;3.10;;;;;;;16.08;100.00;96649.97;5016078;23;22373;-64
2021/07/29 01:40:46;;;;;;;18.75;3.22;;;;;;;16.21;100.00;96655.81;5014934;28;20044;-64
2021/07/29 01:43:11;;;;;;;17.92;3.63;;;;;;;16.36;100.00;96662.78;5028992;28;20378;-63
2021/07/29 01:45:37;;;;;;;6.13;2.50;;;;;;;16.37;100.00;96652.53;5021979;28;20041;-62
2021/07/29 01:48:02;;;;;;;7.57;2.78;;;;;;;16.21;100.00;96655.81;5030607;28;20040;-64
2021/07/29 01:50:27;;;;;;;6.13;2.67;;;;;;;16.14;100.00;96659.38;5016891;28;20095;-64
2021/07/29 01:52:53;;;;;;;4.82;2.78;;;;;;;16.07;100.00;96655.88;5020653;28;20037;-62
2021/07/29 01:55:18;;;;;;;4.65;2.65;;;;;;;16.02;100.00;96668.91;5015623;28;20036;-64
2021/07/29 01:57:44;;;;;;;8.23;3.55;;;;;;;15.99;100.00;96660.66;5018407;28;20037;-62
2021/07/29 02:00:10;;;;;;;11.32;3.30;;;;;;;15.92;100.00;96669.78;5013542;28;20517;-63
2021/07/29 02:02:36;;;;;;;13.20;3.80;;;;;;;15.86;100.00;96658.38;4999967;28;20045;-62
2021/07/29 02:05:01;;;;;;;14.65;2.67;;;;;;;15.79;100.00;96655.66;5020536;28;20057;-62
2021/07/29 02:07:27;;;;;;;8.15;3.28;;;;;;;15.70;100.00;96654.47;5014279;28;20041;-63
2021/07/29 02:09:52;;;;;;;5.90;2.83;;;;;;;15.76;100.00;96656.44;5020659;28;20041;-62
2021/07/29 02:12:18;;;;;;;9.50;3.20;;;;;;;15.76;100.00;96661.19;5009377;28;20041;-64
2021/07/29 02:14:43;;;;;;;8.50;3.25;;;;;;;15.73;100.00;96659.97;5000299;28;20034;-63
2021/07/29 02:17:08;;;;;;;8.98;2.83;;;;;;;15.74;100.00;96663.53;5014193;28;20041;-63
2021/07/29 02:19:34;;;;;;;11.65;3.45;;;;;;;15.77;100.00;96662.75;5011708;28;20466;-63
2021/07/29 02:21:59;;;;;;;9.23;3.72;;;;;;;15.79;100.00;96650.13;5001439;28;20444;-62
2021/07/29 02:24:25;;;;;;;9.10;3.42;;;;;;;15.75;100.00;96652.09;5008994;28;20049;-64
2021/07/29 02:26:50;;;;;;;10.50;3.72;;;;;;;15.72;100.00;96652.09;5009599;28;20038;-64
2021/07/29 02:29:15;;;;;;;7.28;3.72;;;;;;;15.65;100.00;96661.19;4996312;28;20042;-62
2021/07/29 02:31:41;;;;;;;10.05;3.38;;;;;;;15.63;100.00;96661.59;5005121;28;20136;-63
2021/07/29 02:34:06;;;;;;;6.03;3.55;;;;;;;15.63;100.00;96664.34;5001934;28;20479;-64
2021/07/29 02:36:32;;;;;;;7.53;3.20;;;;;;;15.67;100.00;96669.88;5001045;28;20038;-63
2021/07/29 02:38:57;;;;;;;10.88;3.10;;;;;;;15.67;100.00;96656.06;5012340;28;20457;-64
2021/07/29 02:41:23;;;;;;;8.43;3.20;;;;;;;15.64;100.00;96662.38;4999401;28;20699;-63
2021/07/29 02:43:48;;;;;;;9.07;2.97;;;;;;;15.59;100.00;96655.31;5008963;28;20046;-64
2021/07/29 02:46:14;;;;;;;13.65;3.65;;;;;;;15.54;100.00;96658.47;5001289;28;20077;-63
2021/07/29 02:48:39;;;;;;;11.48;3.53;;;;;;;15.53;100.00;96659.66;5010144;28;20067;-64
2021/07/29 02:51:05;;;;;;;9.57;3.80;;;;;;;15.57;100.00;96665.16;5003759;28;20477;-62
2021/07/29 02:53:34;;;;;;;11.77;3.92;;;;;;;15.57;100.00;96673.44;5013479;28;20111;-64
2021/07/29 02:55:59;;;;;;;9.10;4.07;;;;;;;15.59;100.00;96668.31;5016714;28;20056;-65
2021/07/29 02:58:25;;;;;;;7.90;4.20;;;;;;;15.63;100.00;96667.13;5006742;28;20413;-64
2021/07/29 03:00:52;;;;;;;9.38;3.53;;;;;;;15.61;100.00;96666.75;5000431;28;20038;-64
2021/07/29 03:03:17;;;;;;;6.85;3.85;;;;;;;15.63;100.00;96667.13;5001203;28;20065;-65
2021/07/29 03:05:43;;;;;;;8.05;3.60;;;;;;;15.66;100.00;96671.84;5001717;28;20070;-64
2021/07/29 03:08:08;;;;;;;12.40;3.60;;;;;;;15.67;100.00;96667.88;5007091;28;20120;-61
2021/07/29 03:10:34;;;;;;;7.13;3.58;;;;;;;15.73;100.00;96664.72;5006331;28;20406;-62
2021/07/29 03:13:01;;;;;;;6.05;3.92;;;;;;;15.78;100.00;96665.09;5000096;28;20057;-63
2021/07/29 03:15:29;;;;;;;8.77;3.45;;;;;;;15.78;100.00;96669.84;4996884;28;20042;-65
2021/07/29 03:17:55;;;;;;;6.13;3.25;;;;;;;15.73;100.00;96661.94;4998317;28;20143;-62
2021/07/29 03:20:21;;;;;;;10.05;3.50;;;;;;;15.68;100.00;96663.13;5000812;28;20073;-61
2021/07/29 03:22:46;;;;;;;9.35;4.03;;;;;;;15.65;100.00;96661.19;5010850;28;20128;-63
2021/07/29 03:25:12;;;;;;;11.43;5.18;;;;;;;15.68;100.00;96657.63;5003995;28;20191;-63
2021/07/29 03:27:37;;;;;;;6.95;4.00;;;;;;;15.69;100.00;96659.19;5010354;28;20044;-63
2021/07/29 03:30:03;;;;;;;9.85;4.90;;;;;;;15.73;100.00;96661.94;5005460;28;20029;-62
2021/07/29 03:32:29;;;;;;;7.38;4.13;;;;;;;15.68;100.00;96655.66;4996939;28;20556;-62
2021/07/29 03:34:54;;;;;;;8.00;4.03;;;;;;;15.66;100.00;96663.56;5000015;28;20050;-63
2021/07/29 03:37:19;;;;;;;11.43;4.63;;;;;;;15.63;100.00;96655.28;5007657;28;20367;-62
2021/07/29 03:39:45;;;;;;;15.80;4.03;;;;;;;15.61;100.00;96654.88;5010653;28;20041;-63
2021/07/29 03:42:10;;;;;;;11.93;4.30;;;;;;;15.61;100.00;96668.69;5002313;28;20549;-61
2021/07/29 03:44:35;;;;;;;6.78;4.05;;;;;;;15.63;100.00;96664.34;5001066;28;20045;-62
2021/07/29 03:47:01;;;;;;;9.50;4.57;;;;;;;15.65;100.00;96661.97;5014502;28;20575;-63
2021/07/29 03:49:26;;;;;;;9.07;5.38;;;;;;;15.68;100.00;96668.66;5000862;28;20057;-62
2021/07/29 03:51:52;;;;;;;8.00;4.78;;;;;;;15.64;100.00;96668.69;5010269;28;20037;-62
2021/07/29 03:54:17;;;;;;;11.40;4.68;;;;;;;15.61;100.00;96666.75;5008195;28;20128;-61
2021/07/29 03:56:43;;;;;;;8.63;4.57;;;;;;;15.56;100.00;96669.91;5020548;28;20421;-62
2021/07/29 03:59:08;;;;;;;7.32;4.25;;;;;;;15.56;100.00;96669.91;5003018;28;20047;-62
2021/07/29 04:01:34;;;;;;;11.20;4.53;;;;;;;15.59;100.00;96671.88;5016492;28;20060;-63
2021/07/29 04:03:59;;;;;;;10.68;4.10;;;;;;;15.57;100.00;96673.44;5030591;28;20041;-66
2021/07/29 04:06:25;;;;;;;9.55;4.78;;;;;;;15.55;100.00;96671.09;5027111;28;20054;-64
2021/07/29 04:08:50;;;;;;;7.63;4.38;;;;;;;15.57;100.00;96678.97;5016270;28;20111;-64
2021/07/29 04:11:16;;;;;;;11.60;3.95;;;;;;;15.56;100.00;96677.41;5018698;28;20095;-62
2021/07/29 04:13:41;;;;;;;6.25;4.38;;;;;;;15.57;100.00;96676.97;5013424;28;20501;-64
2021/07/29 04:16:06;;;;;;;6.13;3.83;;;;;;;15.56;100.00;96674.66;5006601;28;20030;-63
2021/07/29 04:18:32;;;;;;;7.18;3.50;;;;;;;15.60;100.00;96672.66;5003835;28;20490;-62
2021/07/29 04:20:59;;;;;;;8.63;3.75;;;;;;;15.59;100.00;96676.59;5011428;28;20076;-64
2021/07/29 04:23:24;;;;;;;8.10;3.80;;;;;;;15.52;100.00;96671.91;5007576;28;20392;-64
2021/07/29 04:25:50;;;;;;;5.88;3.65;;;;;;;15.54;100.00;96677.81;5005039;28;20080;-63
2021/07/29 04:28:15;;;;;;;8.48;4.10;;;;;;;15.54;100.00;96686.09;4990863;28;20737;-63
2021/07/29 04:30:41;;;;;;;10.65;3.90;;;;;;;15.52;100.00;96685.69;5017980;28;20375;-62
2021/07/29 04:33:09;;;;;;;7.05;3.97;;;;;;;15.65;100.00;96688.81;5027042;28;20061;-62
2021/07/29 04:35:37;;;;;;;8.25;4.30;;;;;;;15.87;100.00;96695.06;5017385;28;20045;-63
2021/07/29 04:38:02;;;;;;;9.20;3.47;;;;;;;15.81;100.00;96693.88;5013056;28;20079;-60
2021/07/29 04:40:28;;;;;;;5.30;3.88;;;;;;;15.74;100.00;96686.44;5019054;28;20225;-64
2021/07/29 04:42:53;;;;;;;5.20;3.92;;;;;;;15.60;100.00;96684.47;5011132;28;20041;-62
2021/07/29 04:45:19;;;;;;;9.68;4.13;;;;;;;15.61;100.00;96686.06;4997910;28;20046;-62
2021/07/29 04:47:44;;;;;;;7.32;3.28;;;;;;;15.67;100.00;96684.44;5002847;28;20081;-62
2021/07/29 04:50:10;;;;;;;7.68;3.38;;;;;;;15.77;100.00;96696.69;5009845;28;20485;-61
2021/07/29 04:52:35;;;;;;;6.30;3.40;;;;;;;15.78;100.00;96698.25;5013262;28;20052;-61
2021/07/29 04:55:01;;;;;;;5.85;2.97;;;;;;;15.83;100.00;96700.59;5009659;28;20029;-63
2021/07/29 04:57:26;;;;;;;8.90;2.97;;;;;;;15.83;100.00;96706.13;5010716;28;20239;-63
2021/07/29 04:59:51;;;;;;;5.72;3.35;;;;;;;15.82;100.00;96703.75;5027253;28;20053;-63
2021/07/29 05:02:20;;;;;;;8.40;3.40;;;;;;;15.90;100.00;96698.97;5013032;28;20042;-62
2021/07/29 05:04:45;;;;;;;12.73;4.70;;;;;;;16.14;100.00;96700.84;5000835;28;20589;-63
2021/07/29 05:07:14;;;;;;;32.40;15.38;;;;;;;15.98;100.00;96704.06;5004515;28;20118;-64
2021/07/29 05:09:39;;;;;;;6.43;3.15;;;;;;;15.88;100.00;96701.34;5002071;28;20053;-64
2021/07/29 05:12:05;;;;;;;8.68;2.97;;;;;;;15.97;100.00;96705.28;5013209;28;20041;-60
2021/07/29 05:14:31;;;;;;;9.43;3.05;;;;;;;16.11;100.00;96698.88;5023041;28;20045;-65
2021/07/29 05:17:04;;;;;;;5.70;3.05;;;;;;;16.21;100.00;96703.56;5020615;28;20045;-64
2021/07/29 05:19:29;;;;;;;5.75;2.95;;;;;;;16.31;100.00;96703.88;5000170;28;20042;-64
2021/07/29 05:21:55;;;;;;;5.50;2.42;;;;;;;16.46;100.00;96701.81;5013677;28;20052;-64
2021/07/29 05:24:20;;;;;;;7.53;2.78;;;;;;;16.33;100.00;96698.75;4998648;28;20034;-65
2021/07/29 05:26:46;;;;;;;3.78;2.47;;;;;;;16.30;100.00;96686.53;5021495;28;20044;-64
2021/07/29 05:29:11;;;;;;;6.95;2.75;;;;;;;16.33;100.00;96687.69;5025643;28;20054;-63
2021/07/29 05:31:40;;;;;;;6.00;2.95;;;;;;;16.46;100.00;96704.56;5040859;28;20053;-62
2021/07/29 05:34:06;;;;;;;8.80;2.80;;;;;;;16.52;100.00;96694.69;4998853;28;20060;-63
2021/07/29 05:36:31;;;;;;;6.32;2.65;;;;;;;16.55;100.00;96700.19;5008952;28;20744;-64
2021/07/29 05:38:57;;;;;;;6.10;2.72;;;;;;;17.28;100.00;96701.16;5003137;28;20049;-64
2021/07/29 05:41:22;;;;;;;5.70;2.40;;;;;;;17.58;100.00;96689.38;4994783;28;20736;-64
2021/07/29 05:43:47;;;;;;;3.38;2.00;;;;;;;17.80;100.00;96700.19;4998266;28;20045;-63
2021/07/29 05:46:13;;;;;;;5.55;2.22;;;;;;;17.20;100.00;96699.66;4993997;28;20053;-63
2021/07/29 05:48:39;;;;;;;6.82;2.30;;;;;;;16.99;100.00;96698.66;4992251;28;20045;-63
2021/07/29 05:51:05;;;;;;;4.93;2.35;;;;;;;16.73;100.00;96702.03;5014202;28;20042;-62
2021/07/29 05:53:31;;;;;;;4.78;2.40;;;;;;;16.69;100.00;96699.28;5012398;28;20045;-64
2021/07/29 05:55:56;;;;;;;4.60;2.20;;;;;;;17.02;100.00;96701.81;5021207;28;20050;-64
2021/07/29 05:58:22;;;;;;;3.10;1.92;;;;;;;17.46;100.00;96703.72;5008925;28;20520;-62
2021/07/29 06:00:48;;;;;;;4.35;2.08;;;;;;;17.67;99.53;96707.47;5003455;28;20137;-64
2021/07/29 06:03:14;;;;;;;5.95;2.15;;;;;;;17.83;96.45;96704.91;5006388;28;20575;-62
2021/07/29 06:05:39;;;;;;;4.25;2.17;;;;;;;17.28;98.14;96708.69;5017710;28;20107;-63
2021/07/29 06:08:05;;;;;;;4.95;2.25;;;;;;;17.04;100.00;96716.81;5006941;28;20131;-61
2021/07/29 06:10:30;;;;;;;4.22;2.20;;;;;;;17.54;100.00;96718.31;5019185;28;20072;-63
2021/07/29 06:12:56;;;;;;;5.32;1.85;;;;;;;18.09;96.35;96716.47;5008763;28;20377;-63
2021/07/29 06:15:21;;;;;;;4.38;2.20;;;;;;;18.01;96.81;96717.78;4996164;28;20789;-65
2021/07/29 06:17:52;;;;;;;8.88;2.20;;;;;;;17.93;97.32;96715.13;5000302;28;20045;-64
2021/07/29 06:20:17;;;;;;;6.10;2.15;;;;;;;18.23;94.99;96726.59;5009086;28;20546;-64
2021/07/29 06:22:43;;;;;;;8.02;3.15;;;;;;;18.01;96.26;96713.03;5010255;28;20066;-62
2021/07/29 06:25:09;;;;;;;6.03;2.00;;;;;;;17.84;96.27;96712.00;4996724;28;20045;-61
2021/07/29 06:27:36;;;;;;;4.43;2.38;;;;;;;17.33;99.58;96706.25;5008831;28;20053;-64
2021/07/29 06:30:03;;;;;;;5.90;2.25;;;;;;;17.77;98.48;96707.34;5005831;28;20042;-61
2021/07/29 06:32:29;;;;;;;6.22;2.17;;;;;;;17.87;95.62;96713.97;4993277;28;20046;-61
2021/07/29 06:34:54;;;;;;;4.93;2.08;;;;;;;18.14;94.97;96705.72;5010146;28;20044;-62
2021/07/29 06:37:19;;;;;;;4.30;2.00;;;;;;;17.86;96.75;96703.31;5008203;28;20054;-64
2021/07/29 06:39:45;;;;;;;4.63;1.95;;;;;;;18.32;96.07;96708.25;4990891;28;20721;-64
2021/07/29 06:42:11;;;;;;;8.07;2.20;;;;;;;18.26;93.94;96701.59;5005506;28;20516;-63
2021/07/29 06:44:38;;;;;;;9.30;2.40;;;;;;;18.32;94.58;96713.00;5016066;28;20045;-63
2021/07/29 06:47:04;;;;;;;3.03;1.70;;;;;;;18.60;93.44;96711.00;4997593;28;20038;-62
2021/07/29 06:49:34;;;;;;;3.40;2.00;;;;;;;18.26;93.38;96706.38;5013941;28;20042;-64
2021/07/29 06:52:00;;;;;;;5.93;2.08;;;;;;;18.60;92.08;96717.38;5008612;28;20407;-62
2021/07/29 06:54:26;;;;;;;5.60;2.80;;;;;;;19.38;89.90;96710.97;5006282;28;20050;-62
2021/07/29 06:56:51;;;;;;;5.10;2.33;;;;;;;20.47;85.14;96711.13;5018131;28;20056;-62
2021/07/29 06:59:17;;;;;;;4.10;2.30;;;;;;;21.07;80.22;96710.13;5006972;28;20045;-62
2021/07/29 07:01:42;;;;;;;4.15;1.88;;;;;;;20.93;78.49;96717.63;5006067;28;20078;-64
2021/07/29 07:04:07;;;;;;;4.55;2.60;;;;;;;20.93;78.67;96720.41;4998424;28;20045;-65
2021/07/29 07:06:34;;;;;;;5.88;2.13;;;;;;;22.37;74.88;96713.03;5004696;28;20069;-62
2021/07/29 07:08:59;;;;;;;5.05;2.47;;;;;;;23.91;66.37;96721.91;5006301;28;20095;-64
2021/07/29 07:11:25;;;;;;;4.57;2.83;;;;;;;23.66;64.62;96728.41;5005824;28;20046;-63
2021/07/29 07:13:50;;;;;;;4.22;1.85;;;;;;;23.76;66.52;96726.44;5010461;28;20073;-64
2021/07/29 07:16:16;;;;;;;4.50;2.33;;;;;;;24.86;61.27;96729.13;5006515;28;20045;-64
2021/07/29 07:18:42;;;;;;;4.30;1.80;;;;;;;25.49;57.54;96721.34;5008033;28;20073;-63
2021/07/29 07:21:09;;;;;;;4.05;2.10;;;;;;;24.95;58.79;96717.94;4996621;28;20042;-64
2021/07/29 07:23:35;;;;;;;6.60;2.45;;;;;;;25.15;58.44;96720.34;5010547;28;20042;-63
2021/07/29 07:26:01;;;;;;;19.85;3.35;;;;;;;25.72;57.00;96713.59;5014055;28;20056;-64
2021/07/29 07:28:26;;;;;;;10.85;3.22;;;;;;;26.76;55.04;96710.88;5013418;28;20041;-65
2021/07/29 07:30:52;;;;;;;4.00;2.08;;;;;;;26.67;54.65;96718.13;5021560;28;20386;-63
2021/07/29 07:33:17;;;;;;;6.50;2.28;;;;;;;28.46;49.48;96724.34;5008262;28;20034;-64
2021/07/29 07:35:42;;;;;;;7.25;2.17;;;;;;;27.88;49.85;96718.16;5012048;28;20049;-64
2021/07/29 07:38:08;;;;;;;6.30;1.95;;;;;;;27.21;50.75;96723.16;5005156;28;20042;-64
2021/07/29 07:40:35;;;;;;;5.50;2.20;;;;;;;27.69;50.26;96725.19;5017638;28;20045;-64
2021/07/29 07:43:01;;;;;;;8.15;2.47;;;;;;;28.09;48.74;96724.72;5012898;28;20060;-65
2021/07/29 07:45:27;;;;;;;8.38;2.38;;;;;;;26.92;51.26;96718.94;5017766;28;20502;-64
2021/07/29 07:47:52;;;;;;;12.18;2.33;;;;;;;26.75;51.54;96726.97;5008538;28;20053;-66
2021/07/29 07:50:17;;;;;;;4.07;1.98;;;;;;;26.32;51.85;96728.97;5010172;28;20049;-63
2021/07/29 07:52:43;;;;;;;6.15;2.13;;;;;;;25.48;54.04;96719.81;5024037;28;20402;-64
2021/07/29 07:55:08;;;;;;;4.88;2.35;;;;;;;25.07;55.45;96721.88;5010134;28;20034;-61
2021/07/29 07:57:34;;;;;;;3.90;2.00;;;;;;;26.37;51.77;96724.75;5013527;28;20406;-62
2021/07/29 07:59:59;;;;;;;3.97;2.17;;;;;;;26.80;49.88;96723.53;5011946;28;20042;-63
2021/07/29 08:02:25;;;;;;;3.53;2.00;;;;;;;27.04;49.99;96711.53;5010027;28;20509;-63
2021/07/29 08:04:52;;;;;;;3.35;2.22;;;;;;;27.01;50.10;96718.91;5003029;28;20041;-63
2021/07/29 08:07:17;;;;;;;13.35;2.67;;;;;;;27.34;48.73;96720.91;5004619;28;20037;-62
2021/07/29 08:09:42;;;;;;;4.60;2.10;;;;;;;28.01;47.23;96715.09;4990062;28;20034;-62
2021/07/29 08:12:08;;;;;;;4.90;2.35;;;;;;;28.11;46.68;96721.41;5012094;28;20049;-63
2021/07/29 08:14:37;;;;;;;2.83;1.90;;;;;;;27.41;48.45;96714.94;5005483;28;20041;-64
2021/07/29 08:17:04;;;;;;;4.82;2.72;;;;;;;27.20;49.15;96718.78;5021053;28;20038;-60
2021/07/29 08:19:29;;;;;;;3.47;1.90;;;;;;;26.23;51.96;96712.91;5021569;28;20037;-64
2021/07/29 08:21:55;;;;;;;6.90;2.75;;;;;;;25.82;53.49;96708.72;5013716;28;20053;-63
2021/07/29 08:24:20;;;;;;;5.00;2.50;;;;;;;25.38;53.69;96707.78;5002611;28;20041;-66
2021/07/29 08:26:46;;;;;;;11.57;4.50;;;;;;;24.92;53.50;96710.50;5006694;28;20107;-63
2021/07/29 08:29:11;;;;;;;5.82;2.20;;;;;;;25.22;53.36;96710.09;5004632;28;20048;-65
2021/07/29 08:31:37;;;;;;;7.93;3.35;;;;;;;25.82;53.28;96703.94;5009075;28;20490;-63
2021/07/29 08:34:02;;;;;;;5.28;3.28;;;;;;;26.49;50.82;96709.75;5006438;28;20034;-59
2021/07/29 08:36:28;;;;;;;4.50;2.30;;;;;;;27.12;48.88;96698.69;5008254;28;20490;-64
2021/07/29 08:38:53;;;;;;;4.32;2.20;;;;;;;27.04;47.84;96694.69;5011302;28;20042;-64
2021/07/29 08:41:19;;;;;;;4.35;2.25;;;;;;;26.91;46.92;96700.53;5005160;28;20379;-65
2021/07/29 08:43:45;;;;;;;3.92;2.53;;;;;;;27.35;45.39;96697.19;5002398;28;20087;-70
2021/07/29 08:46:17;;;;;;;5.60;2.15;;;;;;;27.41;46.55;96700.09;4997632;28;20175;-62
2021/07/29 08:48:48;;;;;;;3.72;2.15;;;;;;;28.52;42.50;96696.25;5019992;28;20506;-63
2021/07/29 08:51:24;;;;;;;5.50;2.00;;;;;;;27.48;45.04;96698.94;5026400;22;20021;-62
2021/07/29 08:53:53;;;;;;;4.80;2.60;;;;;;;27.45;45.83;96695.84;5002174;28;20065;-63
2021/07/29 08:56:25;;;;;;;9.73;2.78;;;;;;;28.27;44.00;96695.59;5009196;28;20042;-63
2021/07/29 08:58:52;;;;;;;6.10;2.90;;;;;;;27.79;45.54;96693.69;5008965;28;20102;-64
2021/07/29 09:01:17;;;;;;;4.85;2.28;;;;;;;29.05;41.36;96695.28;5004521;28;20502;-64
2021/07/29 09:03:44;;;;;;;8.68;2.70;;;;;;;28.33;43.26;96692.88;4977095;28;20077;-63
2021/07/29 09:06:13;;;;;;;13.52;2.95;;;;;;;28.48;43.38;96690.81;4985884;28;20072;-63
2021/07/29 09:08:49;;;;;;;6.05;3.30;;;;;;;28.04;43.38;96694.44;4986605;28;20054;-64
2021/07/29 09:11:35;;;;;;;6.00;2.58;;;;;;;28.51;43.05;96692.66;4988056;28;20629;-64
2021/07/29 09:14:05;;;;;;;5.03;1.92;;;;;;;28.01;44.50;96686.94;4995445;28;20038;-64
2021/07/29 09:16:34;;;;;;;4.03;2.15;;;;;;;28.31;44.27;96687.75;4991716;28;20069;-65
2021/07/29 09:19:01;;;;;;;6.40;2.65;;;;;;;28.49;43.27;96692.38;4978888;28;20037;-64
2021/07/29 09:21:26;;;;;;;12.45;2.50;;;;;;;29.01;41.89;96688.31;4988331;28;20390;-65
2021/07/29 09:24:07;;;;;;;4.50;2.08;;;;;;;28.95;41.69;96697.44;4988051;28;20142;-64
2021/07/29 09:26:55;;;;;;;3.90;2.38;;;;;;;28.81;41.68;96694.69;4986470;28;20046;-64
2021/07/29 09:29:22;;;;;;;5.90;2.30;;;;;;;27.65;44.25;96689.56;4986924;28;20045;-65
2021/07/29 09:31:47;;;;;;;6.00;2.30;;;;;;;26.88;45.61;96684.63;4989232;28;20073;-63
2021/07/29 09:34:13;;;;;;;5.72;2.22;;;;;;;26.54;48.14;96688.66;4985936;28;20074;-64
2021/07/29 09:36:38;;;;;;;7.07;3.03;;;;;;;26.54;47.48;96689.41;4984025;28;20509;-64
2021/07/29 09:39:21;;;;;;;5.90;2.08;;;;;;;26.29;47.68;96694.19;4978241;28;20046;-64
2021/07/29 09:41:53;;;;;;;5.28;2.53;;;;;;;26.03;48.54;96685.34;4991217;28;20569;-65
2021/07/29 09:44:39;;;;;;;4.05;2.60;;;;;;;26.11;48.54;96692.22;4982956;28;20045;-65
2021/07/29 09:47:05;;;;;;;5.35;2.65;;;;;;;26.54;47.80;96689.41;4986113;28;20053;-62
2021/07/29 09:49:31;;;;;;;5.85;2.15;;;;;;;26.62;46.58;96687.09;4982395;28;20046;-63
2021/07/29 09:51:59;;;;;;;7.13;2.40;;;;;;;26.70;45.67;96679.84;4997641;28;20046;-64
2021/07/29 09:54:24;;;;;;;6.07;2.00;;;;;;;27.68;44.51;96679.41;4993925;28;20980;-65
2021/07/29 09:56:50;;;;;;;3.67;2.17;;;;;;;27.61;43.37;96677.75;4994220;28;20140;-63
2021/07/29 09:59:15;;;;;;;4.05;2.28;;;;;;;27.42;44.34;96673.50;4974636;28;20054;-64
2021/07/29 10:01:42;;;;;;;4.05;2.90;;;;;;;27.92;42.32;96673.75;4993898;28;20050;-64
2021/07/29 10:04:08;;;;;;;3.45;2.15;;;;;;;27.99;43.30;96673.34;4987969;28;20038;-63
2021/07/29 10:06:35;;;;;;;3.92;1.95;;;;;;;28.72;41.05;96664.56;4995354;28;20061;-63
2021/07/29 10:09:04;;;;;;;6.93;2.33;;;;;;;27.77;42.51;96664.50;4973054;28;20131;-63
2021/07/29 10:11:35;;;;;;;4.20;2.10;;;;;;;28.70;41.87;96667.09;4988380;28;20081;-64
2021/07/29 10:14:00;;;;;;;4.90;2.38;;;;;;;27.69;43.03;96661.25;4987292;28;20100;-64
2021/07/29 10:16:46;;;;;;;3.83;2.33;;;;;;;27.44;44.23;96660.53;4985566;28;20457;-64
2021/07/29 10:19:12;;;;;;;13.35;2.75;;;;;;;27.49;44.07;96656.28;4973515;28;20136;-65
2021/07/29 10:21:38;;;;;;;3.42;2.10;;;;;;;26.72;45.22;96654.09;4993411;28;20521;-65
2021/07/29 10:24:06;;;;;;;3.35;2.15;;;;;;;26.68;45.31;96660.66;4979362;28;20615;-62
2021/07/29 10:26:55;;;;;;;4.65;2.83;;;;;;;26.94;44.81;96653.81;4989750;28;20058;-64
2021/07/29 10:29:27;;;;;;;;;;;;;;;27.16;44.83;96653.53;4979634;28;20096;-64
2021/07/29 10:31:57;;;;;;;6.47;2.67;;;;;;;26.48;45.47;96652.78;4988696;28;20259;-65
2021/07/29 10:34:26;;;;;;;4.10;2.45;;;;;;;27.02;44.80;96655.03;4980482;28;20594;-63
2021/07/29 10:36:51;;;;;;;4.03;2.53;;;;;;;27.09;44.45;96654.66;4993031;28;20162;-63
2021/07/29 10:39:17;;;;;;;4.07;2.35;;;;;;;26.69;47.09;96650.22;4990037;28;20149;-65
2021/07/29 10:42:12;;;;;;;4.22;2.58;;;;;;;26.83;45.54;96648.72;4991334;28;20085;-62
2021/07/29 10:44:37;;;;;;;6.47;2.65;;;;;;;26.43;47.17;96650.59;4982710;28;20050;-64
2021/07/29 10:47:05;;;;;;;3.77;2.40;;;;;;;26.78;46.09;96646.59;4992702;28;20052;-61
2021/07/29 10:49:53;;;;;;;6.35;2.60;;;;;;;26.77;45.67;96640.19;4983484;28;20293;-64
2021/07/29 10:52:19;;;;;;;4.57;2.85;;;;;;;26.87;45.54;96643.72;4978910;28;20045;-65
2021/07/29 10:54:45;;;;;;;5.25;2.50;;;;;;;27.11;45.97;96646.53;4982923;28;20042;-63
2021/07/29 10:57:12;;;;;;;4.60;2.53;;;;;;;27.36;44.67;96645.28;4989957;28;20042;-65
2021/07/29 10:59:39;;;;;;;3.70;2.38;;;;;;;27.06;44.72;96645.19;4999587;28;20053;-64
2021/07/29 11:02:13;;;;;;;6.93;2.97;;;;;;;27.41;44.09;96630.56;4990752;28;20050;-63
2021/07/29 11:04:52;;;;;;;4.32;2.80;;;;;;;26.25;47.41;96634.63;4992604;28;20173;-63
2021/07/29 11:07:19;;;;;;;5.97;2.67;;;;;;;26.44;46.73;96632.53;4988092;28;20053;-65
2021/07/29 11:09:45;;;;;;;4.70;2.40;;;;;;;26.95;45.92;96630.88;4986259;28;20050;-64
2021/07/29 11:12:13;;;;;;;4.18;2.40;;;;;;;26.91;45.22;96629.50;4989775;28;20042;-65
2021/07/29 11:14:40;;;;;;;4.60;2.83;;;;;;;26.61;45.58;96620.94;4986396;28;20046;-64
2021/07/29 11:17:05;;;;;;;5.30;3.00;;;;;;;26.95;44.53;96616.81;4992356;28;20041;-63
2021/07/29 11:19:45;;;;;;;5.10;2.78;;;;;;;27.09;43.99;96618.91;4992037;28;20057;-64
2021/07/29 11:22:11;;;;;;;6.32;2.75;;;;;;;26.55;46.86;96620.00;4987208;28;20051;-63
2021/07/29 11:24:37;;;;;;;5.45;2.83;;;;;;;26.80;46.20;96613.94;4995363;28;20082;-64
2021/07/29 11:27:04;;;;;;;7.10;2.70;;;;;;;27.10;45.05;96608.47;4992641;28;20137;-62